Time;durP1;ratioP1;P1;durP2;ratioP2;P2;SDS_P1;SDS_P2;PMS_P1;PMS_P2;Temp;Humidity;BMP_temperature;BMP_pressure;BME280_temperature;BME280_humidity;BME280_pressure;Samples;Min_cycle;Max_cycle;Signal;HPM_P1;HPM_P2
2022/01/27 00:01:07;;;;;;;59.90;17.55;;;;;;;3.65;88.52;102151.44;4999502;28;20418;-77
2022/01/27 00:03:49;;;;;;;53.80;18.17;;;;;;;3.59;88.83;102147.63;4982804;28;20025;-77
2022/01/27 00:06:16;;;;;;;51.75;17.30;;;;;;;3.58;88.79;102132.69;4998512;28;20065;-77
2022/01/27 00:08:47;;;;;;;57.95;18.88;;;;;;;3.58;88.63;102132.69;5000963;28;20040;-78
2022/01/27 00:11:15;;;;;;;58.13;19.17;;;;;;;3.60;88.51;102122.78;4998958;28;20029;-78
2022/01/27 00:13:56;;;;;;;52.97;19.65;;;;;;;3.66;88.56;102123.09;5000839;28;20025;-78
2022/01/27 00:16:28;;;;;;;52.13;18.30;;;;;;;3.60;88.40;102112.19;4984675;28;20029;-76
2022/01/27 00:18:55;;;;;;;52.33;18.08;;;;;;;3.59;88.77;102101.72;4998717;28;20045;-77
2022/01/27 00:21:26;;;;;;;60.65;18.83;;;;;;;3.59;88.73;102104.38;4999154;28;20064;-78
2022/01/27 00:23:52;;;;;;;56.42;18.10;;;;;;;3.54;89.15;102106.72;4999398;28;20064;-77
2022/01/27 00:26:19;;;;;;;56.58;20.40;;;;;;;3.57;88.68;102106.38;4982888;28;20026;-78
2022/01/27 00:28:46;;;;;;;57.88;20.08;;;;;;;3.59;88.70;102104.38;4998578;28;20424;-77
2022/01/27 00:31:12;;;;;;;55.25;18.67;;;;;;;3.60;88.73;102104.22;5000253;28;20029;-76
2022/01/27 00:33:38;;;;;;;55.17;18.23;;;;;;;3.67;88.59;102103.53;5000126;28;20045;-76
2022/01/27 00:36:04;;;;;;;61.45;18.52;;;;;;;3.62;88.55;102102.22;4996022;28;20264;-77
2022/01/27 00:38:30;;;;;;;52.25;18.42;;;;;;;3.64;88.34;102096.75;4997800;28;20472;-77
2022/01/27 00:40:56;;;;;;;52.13;16.80;;;;;;;3.61;88.90;102092.63;4999764;28;20420;-76
2022/01/27 00:43:21;;;;;;;49.42;16.90;;;;;;;3.63;88.64;102082.69;4997453;28;20026;-76
2022/01/27 00:45:47;;;;;;;51.75;17.95;;;;;;;3.64;88.61;102070.25;4997051;28;20077;-78
2022/01/27 00:48:15;;;;;;;52.05;18.35;;;;;;;3.62;88.48;102070.44;4998791;28;20022;-76
2022/01/27 00:50:41;;;;;;;53.67;17.25;;;;;;;3.61;88.39;102062.66;4998343;28;20076;-77
2022/01/27 00:53:21;;;;;;;55.65;18.50;;;;;;;3.65;88.32;102056.00;4996594;28;20132;-78
2022/01/27 00:55:47;;;;;;;56.80;18.55;;;;;;;3.67;88.26;102054.00;4999418;28;20569;-78
2022/01/27 00:58:32;;;;;;;51.13;17.55;;;;;;;3.68;88.19;102039.75;5001084;28;20034;-77
2022/01/27 01:01:02;;;;;;;54.23;18.37;;;;;;;3.62;88.28;102030.69;5011686;23;20510;-47
2022/01/27 01:03:36;;;;;;;50.15;16.75;;;;;;;3.70;87.98;102029.81;5013011;28;20083;-48
2022/01/27 01:16:25;;;;;;;47.67;17.27;;;;;;;3.71;87.71;102026.16;5011275;28;20319;-47
2022/01/27 01:19:01;;;;;;;54.88;17.85;;;;;;;3.69;87.95;102019.38;5013503;28;20069;-47
2022/01/27 01:34:45;;;;;;;45.03;16.38;;;;;;;3.72;88.04;102001.31;5012496;28;20104;-47
2022/01/27 01:37:10;;;;;;;47.55;17.15;;;;;;;3.69;87.60;101988.41;5011930;28;20033;-47
2022/01/27 01:39:37;;;;;;;44.05;16.25;;;;;;;3.72;87.98;101980.09;5012764;28;20026;-47
2022/01/27 01:42:06;;;;;;;46.22;15.77;;;;;;;3.68;87.67;101986.75;5013093;28;20033;-47
2022/01/27 01:44:33;;;;;;;40.58;15.57;;;;;;;3.77;87.62;101969.81;5013746;28;20034;-47
2022/01/27 01:46:59;;;;;;;37.88;14.80;;;;;;;3.78;87.91;101976.78;5014438;28;20037;-47
2022/01/27 01:49:26;;;;;;;39.53;15.55;;;;;;;3.76;87.60;101976.09;5017401;28;20025;-47
2022/01/27 01:51:54;;;;;;;44.08;14.50;;;;;;;3.81;87.67;101980.91;5012015;28;20052;-47
2022/01/27 01:54:19;;;;;;;45.88;15.95;;;;;;;3.81;87.75;101981.72;5016879;28;20084;-47
2022/01/27 01:56:46;;;;;;;35.53;14.63;;;;;;;3.76;87.83;101983.22;5011694;28;20529;-47
2022/01/27 01:59:12;;;;;;;35.72;13.93;;;;;;;3.80;87.89;101985.38;5013179;28;20040;-47
2022/01/27 02:01:39;;;;;;;36.45;14.10;;;;;;;3.74;88.04;101975.44;5014318;28;20525;-47
2022/01/27 02:04:08;;;;;;;39.30;14.20;;;;;;;3.84;87.85;101981.38;5011716;28;20030;-49
2022/01/27 02:06:58;;;;;;;36.10;13.25;;;;;;;3.81;87.87;101981.72;5009522;28;20123;-47
2022/01/27 02:20:08;;;;;;;31.23;12.17;;;;;;;3.81;87.72;101963.16;5012885;28;20394;-47
2022/01/27 02:22:34;;;;;;;37.95;14.10;;;;;;;3.86;87.58;101962.63;5010047;28;20507;-49
2022/01/27 02:24:59;;;;;;;33.65;12.60;;;;;;;3.86;87.55;101952.84;5012768;28;20247;-47
2022/01/27 02:27:25;;;;;;;32.80;12.48;;;;;;;3.82;87.97;101948.91;5010793;28;20284;-47
2022/01/27 02:29:50;;;;;;;34.47;13.43;;;;;;;3.85;87.79;101940.59;5013562;28;20083;-48
2022/01/27 02:32:19;;;;;;;27.33;13.40;;;;;;;3.83;87.92;101939.13;5015652;28;20117;-47
2022/01/27 02:34:45;;;;;;;32.95;12.45;;;;;;;3.78;87.98;101934.34;5009137;28;20207;-48
2022/01/27 02:37:10;;;;;;;34.35;12.88;;;;;;;3.86;87.84;101936.13;5012754;28;20112;-47
2022/01/27 02:39:37;;;;;;;29.98;12.52;;;;;;;3.84;88.12;101928.34;5010691;28;20159;-47
2022/01/27 02:42:29;;;;;;;26.70;11.77;;;;;;;3.86;87.58;101923.69;5011168;28;20533;-47
2022/01/27 02:44:55;;;;;;;24.38;10.48;;;;;;;3.90;88.01;101914.38;5012835;28;20080;-48
2022/01/27 02:47:22;;;;;;;27.58;11.82;;;;;;;3.92;87.77;101909.72;5015359;28;20061;-47
2022/01/27 02:49:49;;;;;;;28.25;11.15;;;;;;;3.93;87.79;101915.84;5012806;28;20552;-49
2022/01/27 02:52:16;;;;;;;28.55;11.82;;;;;;;3.91;87.72;101917.84;5014005;28;20038;-48
2022/01/27 02:54:42;;;;;;;27.65;11.48;;;;;;;3.91;87.91;101900.13;5012602;28;20017;-48
2022/01/27 02:57:08;;;;;;;27.98;11.65;;;;;;;3.93;87.93;101889.34;5012494;28;20617;-47
2022/01/27 02:59:33;;;;;;;26.70;11.10;;;;;;;3.98;87.53;101873.75;5009380;28;20033;-48
2022/01/27 03:01:59;;;;;;;26.75;10.88;;;;;;;3.99;87.39;101871.91;5011917;28;20478;-47
2022/01/27 03:04:26;;;;;;;24.05;11.25;;;;;;;4.01;87.39;101864.59;5008726;28;20479;-50
2022/01/27 03:06:52;;;;;;;24.80;11.45;;;;;;;4.06;87.32;101844.50;5008453;28;20260;-47
2022/01/27 03:09:17;;;;;;;30.48;11.63;;;;;;;4.07;86.78;101838.19;5010566;28;20103;-47
2022/01/27 03:11:48;;;;;;;25.52;11.75;;;;;;;4.04;87.41;101835.06;5009812;28;20117;-48
2022/01/27 03:14:18;;;;;;;23.52;10.90;;;;;;;4.00;87.60;101833.78;5018686;28;20025;-47
2022/01/27 03:16:44;;;;;;;26.83;12.07;;;;;;;4.02;87.38;101826.47;5012610;28;20088;-49
2022/01/27 03:19:10;;;;;;;23.85;9.88;;;;;;;4.04;87.45;101827.13;5017230;28;20498;-48
2022/01/27 03:21:36;;;;;;;31.23;13.00;;;;;;;4.06;87.45;101822.44;5010853;28;20026;-48
2022/01/27 03:24:02;;;;;;;23.73;11.68;;;;;;;3.97;87.89;101828.84;5010794;28;20033;-48
2022/01/27 03:26:28;;;;;;;21.80;10.20;;;;;;;3.98;87.53;101828.66;5014325;28;20461;-49
2022/01/27 03:28:54;;;;;;;28.73;12.13;;;;;;;4.00;88.19;101823.19;5015266;28;20125;-47
2022/01/27 03:31:20;;;;;;;25.08;11.90;;;;;;;4.01;88.19;101822.19;5015467;28;20060;-47
2022/01/27 03:33:46;;;;;;;28.27;11.52;;;;;;;4.01;88.04;101814.22;5010281;28;20172;-49
2022/01/27 03:36:12;;;;;;;24.90;10.65;;;;;;;3.94;88.27;101816.75;5006364;28;20494;-48
2022/01/27 03:38:38;;;;;;;26.95;11.63;;;;;;;4.02;87.81;101807.91;5011141;28;20463;-48
2022/01/27 03:41:06;;;;;;;26.08;10.93;;;;;;;3.98;87.86;101806.63;5024511;28;20052;-50
2022/01/27 03:43:34;;;;;;;24.15;12.00;;;;;;;4.07;87.79;101805.53;5009163;28;20140;-48
2022/01/27 03:46:01;;;;;;;23.05;11.30;;;;;;;4.09;87.46;101800.88;5009374;28;20518;-50
2022/01/27 03:48:27;;;;;;;27.70;11.10;;;;;;;4.02;87.81;101797.31;5008733;28;20609;-47
2022/01/27 03:50:52;;;;;;;24.67;11.82;;;;;;;4.09;87.60;101798.22;5013654;28;20040;-49
2022/01/27 03:53:18;;;;;;;26.65;11.07;;;;;;;4.04;87.90;101812.03;5012064;28;20036;-50
2022/01/27 03:55:44;;;;;;;21.45;10.25;;;;;;;3.97;88.29;101805.81;5008939;28;20758;-49
2022/01/27 03:58:09;;;;;;;20.65;10.13;;;;;;;3.93;88.38;101807.97;5007630;28;20153;-47
2022/01/27 04:00:36;;;;;;;26.00;10.32;;;;;;;3.94;88.87;101801.66;5004716;28;20422;-47
2022/01/27 04:03:08;;;;;;;20.92;9.77;;;;;;;3.93;88.88;101799.19;5012210;28;20032;-47
2022/01/27 04:05:51;;;;;;;21.90;10.05;;;;;;;3.93;88.82;101796.53;5011506;28;20029;-48
2022/01/27 04:08:17;;;;;;;17.77;9.85;;;;;;;4.02;88.17;101786.69;5007448;28;20049;-47
2022/01/27 04:10:43;;;;;;;22.40;9.80;;;;;;;4.05;88.56;101791.63;5012675;28;20034;-48
2022/01/27 04:13:09;;;;;;;19.63;9.25;;;;;;;4.00;88.56;101789.53;5011047;28;20029;-48
2022/01/27 04:15:36;;;;;;;21.55;11.43;;;;;;;4.05;88.49;101775.72;5009473;28;20116;-48
2022/01/27 04:18:02;;;;;;;25.25;10.73;;;;;;;4.04;88.24;101774.06;5011361;28;20065;-48
2022/01/27 04:20:27;;;;;;;21.52;10.88;;;;;;;4.02;88.67;101766.31;5009394;28;20041;-48
2022/01/27 04:22:53;;;;;;;18.10;11.02;;;;;;;4.05;88.56;101754.50;5010725;28;20030;-47
2022/01/27 04:25:18;;;;;;;24.85;10.80;;;;;;;4.04;88.50;101752.88;5007683;28;20042;-47
2022/01/27 04:27:49;;;;;;;19.73;10.15;;;;;;;4.01;88.40;101747.91;5010896;28;20037;-47
2022/01/27 04:30:18;;;;;;;17.35;9.27;;;;;;;4.02;88.68;101750.41;5010246;28;20025;-48
2022/01/27 04:32:49;;;;;;;20.73;9.70;;;;;;;4.03;88.33;101741.44;5010148;28;20087;-47
2022/01/27 04:35:19;;;;;;;22.63;10.75;;;;;;;4.03;88.52;101738.78;5009709;28;20410;-48
2022/01/27 04:38:34;;;;;;;21.73;11.02;;;;;;;4.02;88.58;101723.88;5009453;28;20938;-48
2022/01/27 04:40:47;;;;;;;21.80;10.48;;;;;;;4.03;88.48;101727.34;5005527;28;20041;-47
2022/01/27 04:43:24;;;;;;;19.40;9.82;;;;;;;4.05;88.45;101718.19;5010664;28;20044;-47
2022/01/27 04:46:01;;;;;;;22.45;11.07;;;;;;;4.08;88.79;101706.41;5011515;28;20028;-49
2022/01/27 04:48:30;;;;;;;23.67;10.10;;;;;;;4.09;88.32;101711.53;5007348;28;20026;-48
2022/01/27 04:51:04;;;;;;;20.60;10.45;;;;;;;4.06;88.97;101692.50;5013748;28;20032;-49
2022/01/27 04:53:34;;;;;;;18.95;9.95;;;;;;;4.05;88.45;101670.47;5014915;28;20040;-47
2022/01/27 04:56:00;;;;;;;19.55;9.65;;;;;;;4.13;88.42;101666.88;5013877;28;20120;-47
2022/01/27 04:58:32;;;;;;;22.42;10.75;;;;;;;4.07;88.50;101654.38;5029341;28;20183;-48
2022/01/27 05:01:03;;;;;;;23.25;10.45;;;;;;;4.08;88.60;101653.38;5011595;28;20037;-48
2022/01/27 05:06:10;;;;;;;22.13;10.57;;;;;;;4.09;88.76;101655.84;5012283;28;20090;-47
2022/01/27 05:08:36;;;;;;;18.83;9.93;;;;;;;4.10;88.76;101656.66;5017314;28;20033;-47
2022/01/27 05:11:12;;;;;;;19.27;9.75;;;;;;;4.10;88.82;101646.03;5013977;28;20116;-47
2022/01/27 05:13:46;;;;;;;19.67;9.48;;;;;;;4.09;88.72;101653.19;5011252;28;20032;-47
2022/01/27 05:16:11;;;;;;;17.80;9.68;;;;;;;4.05;88.93;101640.47;5014923;28;20571;-48
2022/01/27 05:18:37;;;;;;;20.83;9.55;;;;;;;4.07;88.64;101636.63;5013106;28;20112;-48
2022/01/27 05:21:03;;;;;;;21.50;9.63;;;;;;;4.10;89.09;101643.41;5015444;28;20537;-48
2022/01/27 05:23:28;;;;;;;20.02;9.73;;;;;;;4.05;89.20;101648.44;5022500;28;20113;-48
2022/01/27 05:25:54;;;;;;;18.63;9.13;;;;;;;4.03;89.12;101655.75;5015382;28;20029;-48
2022/01/27 05:28:19;;;;;;;18.73;9.45;;;;;;;4.10;89.14;101651.34;5014756;28;20091;-47
2022/01/27 05:30:45;;;;;;;19.80;9.25;;;;;;;4.06;89.32;101637.63;5017283;28;20039;-47
2022/01/27 05:33:10;;;;;;;21.25;8.43;;;;;;;4.04;89.16;101630.88;5012228;28;20060;-48
2022/01/27 05:35:36;;;;;;;20.42;9.82;;;;;;;4.04;89.63;101625.56;5017813;28;20057;-47
2022/01/27 05:38:02;;;;;;;18.20;9.60;;;;;;;4.04;89.50;101614.97;5011576;28;20025;-48
2022/01/27 05:40:28;;;;;;;19.95;9.25;;;;;;;4.07;89.48;101611.94;5016275;28;20469;-47
2022/01/27 05:42:53;;;;;;;18.33;9.45;;;;;;;4.02;89.93;101612.50;5013143;28;20037;-47
2022/01/27 05:45:19;;;;;;;18.27;10.35;;;;;;;4.05;90.01;101600.69;5017581;28;20360;-47
2022/01/27 05:47:45;;;;;;;19.92;9.55;;;;;;;4.03;90.16;101598.22;5012753;28;20030;-49
2022/01/27 05:50:11;;;;;;;20.23;10.30;;;;;;;4.08;89.75;101589.72;5012089;28;20112;-47
2022/01/27 05:52:37;;;;;;;18.85;10.43;;;;;;;4.06;89.98;101592.56;5014023;28;20104;-48
2022/01/27 05:55:04;;;;;;;19.40;10.30;;;;;;;4.05;90.48;101590.09;5014919;28;20129;-47
2022/01/27 05:57:29;;;;;;;16.38;9.43;;;;;;;3.99;90.46;101580.22;5013357;28;20026;-47
2022/01/27 05:59:55;;;;;;;21.25;10.32;;;;;;;4.06;90.83;101563.38;5014962;28;20095;-48
2022/01/27 06:02:20;;;;;;;22.50;10.65;;;;;;;4.07;90.37;101566.84;5013561;28;20037;-48
2022/01/27 06:04:45;;;;;;;20.63;11.23;;;;;;;4.00;91.17;101568.63;5013275;28;20033;-51
2022/01/27 06:07:11;;;;;;;24.38;11.13;;;;;;;4.02;91.17;101585.16;5012252;28;20037;-48
2022/01/27 06:09:37;;;;;;;20.45;10.60;;;;;;;4.02;91.27;101571.91;5011982;28;20372;-48
2022/01/27 06:12:02;;;;;;;20.10;10.02;;;;;;;4.04;91.09;101572.53;5011301;28;20068;-48
2022/01/27 06:14:28;;;;;;;25.13;11.63;;;;;;;4.00;91.24;101569.44;5012895;28;20017;-48
2022/01/27 06:16:53;;;;;;;26.25;12.38;;;;;;;4.04;91.02;101567.22;5015760;28;20049;-47
2022/01/27 06:19:19;;;;;;;31.95;11.80;;;;;;;4.06;91.08;101565.22;5013107;28;20040;-47
2022/01/27 06:21:45;;;;;;;20.55;10.52;;;;;;;4.13;90.43;101563.44;5011154;28;20120;-48
2022/01/27 06:24:11;;;;;;;26.42;11.57;;;;;;;4.07;90.79;101564.22;5012752;28;20033;-50
2022/01/27 06:26:36;;;;;;;22.63;11.55;;;;;;;4.11;90.50;101568.94;5013428;28;20021;-49
2022/01/27 06:29:02;;;;;;;21.80;10.70;;;;;;;4.09;90.55;101557.72;5018668;28;20505;-48
2022/01/27 06:31:28;;;;;;;23.70;10.38;;;;;;;4.12;90.13;101559.16;5011220;28;20133;-48
2022/01/27 06:33:53;;;;;;;21.10;10.18;;;;;;;4.02;90.45;101561.28;5016878;28;20029;-48
2022/01/27 06:36:19;;;;;;;23.80;11.35;;;;;;;3.99;90.84;101551.88;5015277;28;20029;-47
2022/01/27 06:38:45;;;;;;;22.55;10.93;;;;;;;4.03;91.03;101552.34;5013336;28;20130;-48
2022/01/27 06:41:11;;;;;;;19.35;9.38;;;;;;;4.00;90.81;101547.41;5015184;28;20511;-48
2022/01/27 06:43:37;;;;;;;21.30;10.43;;;;;;;3.97;91.10;101550.44;5017023;28;20033;-49
2022/01/27 06:46:03;;;;;;;25.27;11.55;;;;;;;3.94;91.38;101555.06;5010213;28;20103;-48
2022/01/27 06:48:28;;;;;;;21.45;10.45;;;;;;;3.95;91.46;101550.63;5009636;28;20044;-48
2022/01/27 06:50:55;;;;;;;23.38;10.65;;;;;;;3.95;90.99;101545.31;5014592;28;20395;-50
2022/01/27 06:53:22;;;;;;;18.77;10.07;;;;;;;3.96;91.14;101538.19;5012506;28;20503;-47
2022/01/27 06:55:48;;;;;;;18.27;9.75;;;;;;;3.99;91.06;101541.28;5011887;28;20029;-48
2022/01/27 06:58:13;;;;;;;18.90;9.93;;;;;;;3.97;91.08;101534.53;5010293;28;20461;-48
2022/01/27 07:00:39;;;;;;;21.55;10.57;;;;;;;3.99;90.84;101532.50;5015898;28;20117;-48
2022/01/27 07:03:04;;;;;;;19.88;10.73;;;;;;;3.93;91.36;101529.56;5013940;28;20044;-47
2022/01/27 07:05:34;;;;;;;21.83;10.55;;;;;;;3.97;91.13;101529.22;5013721;28;20022;-48
2022/01/27 07:08:00;;;;;;;18.70;9.00;;;;;;;4.01;91.27;101523.34;5011751;28;20052;-48
2022/01/27 07:10:26;;;;;;;19.13;9.55;;;;;;;4.03;90.70;101518.69;5013635;28;20053;-48
2022/01/27 07:12:51;;;;;;;23.80;10.95;;;;;;;4.05;90.59;101521.97;5017614;28;20622;-49
2022/01/27 07:15:17;;;;;;;19.92;9.43;;;;;;;3.99;90.95;101527.19;5010039;28;20121;-49
2022/01/27 07:17:43;;;;;;;21.25;9.88;;;;;;;4.01;90.67;101527.84;5015319;28;20029;-48
2022/01/27 07:20:09;;;;;;;18.63;9.98;;;;;;;4.03;90.75;101523.16;5009473;28;20522;-49
2022/01/27 07:22:36;;;;;;;20.00;10.48;;;;;;;4.03;90.37;101525.81;5013198;28;20036;-47
2022/01/27 07:25:04;;;;;;;23.27;10.82;;;;;;;4.00;90.52;101515.59;5013494;28;20209;-49
2022/01/27 07:27:31;;;;;;;20.13;11.02;;;;;;;3.98;90.82;101502.53;5011907;28;20117;-49
2022/01/27 07:29:57;;;;;;;19.95;9.68;;;;;;;4.04;90.50;101492.97;5011874;28;20204;-48
2022/01/27 07:32:22;;;;;;;20.45;10.70;;;;;;;4.06;90.34;101499.75;5010832;28;20051;-48
2022/01/27 07:34:48;;;;;;;22.20;10.02;;;;;;;4.03;90.32;101491.34;5012652;28;20470;-48
2022/01/27 07:37:13;;;;;;;21.70;10.60;;;;;;;4.02;90.47;101495.00;5016552;28;20041;-48
2022/01/27 07:39:39;;;;;;;23.52;10.77;;;;;;;4.03;90.12;101494.00;5011349;28;20075;-47
2022/01/27 07:42:05;;;;;;;21.02;11.02;;;;;;;4.01;90.42;101488.06;5014927;28;20402;-49
2022/01/27 07:44:30;;;;;;;22.20;10.85;;;;;;;4.06;90.00;101480.34;5008442;28;21005;-49
2022/01/27 07:46:56;;;;;;;23.65;11.95;;;;;;;4.06;90.03;101481.19;5011532;28;20032;-49
2022/01/27 07:49:21;;;;;;;23.98;11.25;;;;;;;4.08;89.79;101481.00;5007586;28;20030;-47
2022/01/27 07:51:47;;;;;;;20.10;10.98;;;;;;;4.02;89.91;101463.19;5011636;28;20025;-49
2022/01/27 07:54:13;;;;;;;25.10;11.88;;;;;;;3.97;90.32;101466.41;5006458;28;20080;-49
2022/01/27 07:56:38;;;;;;;25.95;12.52;;;;;;;3.97;90.17;101469.06;5014280;28;20021;-48
2022/01/27 07:59:04;;;;;;;24.42;11.32;;;;;;;3.98;90.33;101468.03;5017912;28;20037;-48
2022/01/27 08:01:29;;;;;;;30.15;12.05;;;;;;;4.00;90.00;101455.41;5014648;28;20033;-47
2022/01/27 08:03:55;;;;;;;28.30;13.35;;;;;;;3.99;89.77;101459.09;5014197;28;20451;-48
2022/01/27 08:06:20;;;;;;;25.83;13.13;;;;;;;4.00;89.93;101449.28;5009006;28;20120;-48
2022/01/27 08:08:46;;;;;;;32.60;14.65;;;;;;;3.99;89.89;101442.34;5007118;28;20034;-52
2022/01/27 08:11:12;;;;;;;32.30;13.52;;;;;;;3.90;89.80;101434.50;5008029;28;20032;-49
2022/01/27 08:13:37;;;;;;;33.08;15.30;;;;;;;3.94;89.81;101440.25;5007737;28;20064;-48
2022/01/27 08:16:03;;;;;;;33.33;15.57;;;;;;;3.98;89.79;101441.53;5010155;28;20488;-47
2022/01/27 08:18:28;;;;;;;35.67;16.17;;;;;;;4.00;89.45;101428.91;5008475;28;20325;-49
2022/01/27 08:20:54;;;;;;;32.83;16.02;;;;;;;3.96;89.39;101430.28;5017107;28;20029;-50
2022/01/27 08:23:20;;;;;;;34.03;16.95;;;;;;;3.98;89.34;101430.94;5010641;28;20545;-51
2022/01/27 08:25:59;;;;;;;36.83;16.05;;;;;;;3.97;89.33;101423.16;5008887;28;20505;-48
2022/01/27 08:28:34;;;;;;;34.72;17.40;;;;;;;3.95;89.49;101426.00;5010460;28;20037;-48
2022/01/27 08:31:00;;;;;;;42.20;19.35;;;;;;;3.97;88.91;101423.97;5008622;28;20033;-49
2022/01/27 08:33:29;;;;;;;39.88;17.23;;;;;;;3.93;89.00;101417.38;5010219;28;20427;-47
2022/01/27 08:35:55;;;;;;;37.55;16.60;;;;;;;3.97;88.81;101417.84;5007279;28;20132;-50
2022/01/27 08:38:20;;;;;;;40.92;17.23;;;;;;;3.94;88.34;101419.03;5009823;28;20141;-48
2022/01/27 08:40:46;;;;;;;35.40;16.90;;;;;;;3.92;88.57;101410.44;5008753;28;20087;-47
2022/01/27 08:43:11;;;;;;;40.22;18.25;;;;;;;3.97;88.31;101396.66;5009778;28;20063;-48
2022/01/27 08:45:39;;;;;;;40.92;18.25;;;;;;;3.92;88.14;101405.97;5009216;28;20021;-48
2022/01/27 08:48:09;;;;;;;45.63;19.38;;;;;;;3.89;87.91;101401.03;5025213;28;20034;-48
2022/01/27 08:50:35;;;;;;;41.42;17.25;;;;;;;3.96;87.90;101400.31;5008737;28;20033;-48
2022/01/27 08:53:01;;;;;;;41.00;18.48;;;;;;;3.94;88.22;101398.63;5008968;28;20034;-48
2022/01/27 08:55:27;;;;;;;44.72;17.10;;;;;;;3.95;88.08;101396.84;5007522;28;20490;-48
2022/01/27 08:57:54;;;;;;;39.42;18.80;;;;;;;3.97;87.82;101386.03;5008773;28;20053;-47
2022/01/27 09:00:19;;;;;;;39.80;16.90;;;;;;;4.00;87.52;101383.00;5023028;28;20135;-50
2022/01/27 09:02:46;;;;;;;42.30;18.95;;;;;;;4.03;87.21;101396.69;5009397;28;20040;-48
2022/01/27 09:05:12;;;;;;;40.60;17.73;;;;;;;4.00;86.99;101380.34;5007917;28;20030;-50
2022/01/27 09:07:38;;;;;;;39.53;17.88;;;;;;;4.01;86.84;101389.94;5007672;28;20491;-49
2022/01/27 09:10:06;;;;;;;39.10;17.55;;;;;;;4.02;87.11;101389.75;5009029;28;20462;-52
2022/01/27 09:12:31;;;;;;;35.53;17.30;;;;;;;4.02;86.73;101388.94;5009140;28;20048;-47
2022/01/27 09:14:58;;;;;;;38.50;17.02;;;;;;;4.02;86.64;101388.94;5007341;28;20488;-48
2022/01/27 09:17:26;;;;;;;34.67;15.98;;;;;;;4.04;86.51;101386.91;5007351;28;20038;-50
2022/01/27 09:19:53;;;;;;;37.08;17.92;;;;;;;4.00;86.53;101385.66;5007210;28;20025;-48
2022/01/27 09:22:19;;;;;;;40.30;17.80;;;;;;;4.01;86.53;101385.47;5009244;28;20462;-48
2022/01/27 09:25:07;;;;;;;38.47;17.55;;;;;;;4.00;86.33;101380.34;5009278;28;20297;-50
2022/01/27 09:27:34;;;;;;;36.78;18.88;;;;;;;3.99;86.59;101376.06;5008931;28;20030;-50
2022/01/27 09:29:59;;;;;;;42.55;17.58;;;;;;;4.01;86.20;101382.00;5008059;28;20033;-49
2022/01/27 09:32:26;;;;;;;38.25;17.63;;;;;;;3.98;86.31;101366.47;5007522;28;20037;-50
2022/01/27 09:34:51;;;;;;;37.58;17.05;;;;;;;4.00;86.68;101375.06;5007684;28;20018;-49
2022/01/27 09:37:17;;;;;;;39.40;18.17;;;;;;;4.04;86.74;101366.53;5006610;28;20435;-49
2022/01/27 09:39:44;;;;;;;39.65;18.80;;;;;;;4.04;86.43;101363.06;5011286;28;20034;-49
2022/01/27 09:42:09;;;;;;;45.42;19.35;;;;;;;4.02;86.67;101362.41;5012395;28;20090;-48
2022/01/27 09:44:37;;;;;;;42.42;18.13;;;;;;;4.03;86.96;101354.28;5012134;28;20520;-47
2022/01/27 09:47:07;;;;;;;38.05;18.02;;;;;;;4.04;86.87;101355.09;5011780;28;20239;-48
2022/01/27 09:49:39;;;;;;;49.03;20.67;;;;;;;4.02;86.99;101351.81;5010559;28;20124;-52
2022/01/27 09:52:05;;;;;;;42.38;18.83;;;;;;;3.96;87.53;101344.63;5012577;28;20386;-51
2022/01/27 09:54:31;;;;;;;44.28;19.50;;;;;;;3.97;87.57;101348.94;5011943;28;20053;-48
2022/01/27 09:56:57;;;;;;;50.15;20.80;;;;;;;3.97;87.63;101349.75;5011780;28;20032;-49
2022/01/27 09:59:24;;;;;;;43.47;19.60;;;;;;;3.98;87.78;101348.72;5011825;28;20489;-50
2022/01/27 10:02:07;;;;;;;39.17;19.08;;;;;;;3.93;87.67;101349.28;5010561;28;20054;-47
2022/01/27 10:04:48;;;;;;;38.28;17.25;;;;;;;3.94;87.34;101337.66;5009640;28;20030;-50
2022/01/27 10:07:16;;;;;;;39.40;17.35;;;;;;;3.98;87.89;101338.13;5008862;28;20137;-51
2022/01/27 10:10:10;;;;;;;39.20;18.50;;;;;;;3.93;87.36;101332.56;5010556;28;20376;-52
2022/01/27 10:12:51;;;;;;;38.22;18.33;;;;;;;3.91;87.53;101324.78;5013430;28;20025;-49
2022/01/27 10:15:19;;;;;;;42.22;19.73;;;;;;;3.96;87.46;101324.25;5009989;28;20033;-47
2022/01/27 10:18:16;;;;;;;40.47;18.52;;;;;;;3.91;87.64;101331.94;5012035;28;20496;-48
2022/01/27 10:21:05;;;;;;;43.17;18.38;;;;;;;3.94;87.26;101335.00;5010521;28;20056;-50
2022/01/27 10:23:34;;;;;;;39.25;18.42;;;;;;;3.97;87.61;101341.78;5001750;28;20029;-49
2022/01/27 10:26:09;;;;;;;43.05;20.40;;;;;;;4.00;87.63;101328.16;5009239;28;20038;-47
2022/01/27 10:31:10;;;;;;;41.97;17.85;;;;;;;4.01;87.46;101328.97;5011269;28;20033;-48
2022/01/27 10:34:02;;;;;;;41.10;18.08;;;;;;;3.97;87.25;101323.22;5009532;28;20029;-47
2022/01/27 10:36:40;;;;;;;35.22;16.70;;;;;;;4.03;87.20;101321.63;5009801;28;20141;-49
2022/01/27 10:39:20;;;;;;;33.20;16.80;;;;;;;3.99;86.98;101321.22;5010842;28;20120;-49
2022/01/27 10:41:56;;;;;;;38.67;17.88;;;;;;;4.00;86.84;101320.19;5009105;28;20128;-47
2022/01/27 10:44:23;;;;;;;40.83;18.42;;;;;;;4.03;87.30;101313.69;5013114;28;20049;-49
2022/01/27 10:47:07;;;;;;;33.28;15.25;;;;;;;4.04;86.82;101308.19;5010784;28;20057;-48
2022/01/27 10:49:41;;;;;;;33.60;15.52;;;;;;;4.05;87.12;101303.69;5007901;28;20037;-49
2022/01/27 10:52:11;;;;;;;34.63;15.23;;;;;;;4.02;87.51;101299.59;5009794;28;20041;-47
2022/01/27 10:54:47;;;;;;;32.35;14.98;;;;;;;4.01;88.19;101287.38;5009335;28;20026;-49
2022/01/27 10:57:13;;;;;;;34.45;17.08;;;;;;;4.04;88.34;101286.16;5009357;28;20029;-49
2022/01/27 10:59:40;;;;;;;31.30;15.75;;;;;;;4.08;88.92;101279.44;5008992;28;20037;-48
2022/01/27 11:02:11;;;;;;;30.75;15.75;;;;;;;4.03;88.93;101287.16;5011146;28;20124;-47
2022/01/27 11:04:42;;;;;;;32.63;14.65;;;;;;;4.04;88.92;101280.84;5011564;28;20025;-47
2022/01/27 11:07:12;;;;;;;31.52;15.45;;;;;;;4.07;89.39;101253.94;5006682;28;20503;-48
2022/01/27 11:09:44;;;;;;;28.30;12.70;;;;;;;4.05;89.15;101271.88;5011076;28;20535;-49
2022/01/27 11:12:17;;;;;;;28.83;13.98;;;;;;;4.07;88.79;101269.84;5013706;28;20072;-47
2022/01/27 11:14:45;;;;;;;28.38;12.95;;;;;;;4.07;89.36;101264.56;5009324;28;20030;-47
2022/01/27 11:17:17;;;;;;;29.95;13.73;;;;;;;4.10;88.81;101258.84;5008592;28;20088;-47
2022/01/27 11:27:24;;;;;;;33.92;15.85;;;;;;;4.12;89.03;101246.22;5011331;28;20117;-49
2022/01/27 11:30:15;;;;;;;29.23;13.98;;;;;;;4.13;88.52;101246.06;5012474;28;20028;-47
2022/01/27 11:33:18;;;;;;;26.17;12.27;;;;;;;4.06;88.92;101241.69;4981953;28;20280;-49
2022/01/27 11:35:44;;;;;;;26.77;11.75;;;;;;;4.14;88.65;101223.81;5009435;28;20128;-47
2022/01/27 11:38:11;;;;;;;29.33;12.40;;;;;;;4.15;89.01;101235.25;5010330;28;20582;-47
2022/01/27 11:40:41;;;;;;;27.17;11.88;;;;;;;4.10;89.80;101233.16;5012303;28;20479;-48
2022/01/27 11:43:07;;;;;;;25.95;11.45;;;;;;;4.08;89.87;101226.41;5010122;28;20036;-48
2022/01/27 11:45:49;;;;;;;20.17;11.43;;;;;;;4.07;89.96;101233.56;5010914;28;20643;-49
2022/01/27 11:48:19;;;;;;;23.10;10.82;;;;;;;4.05;90.81;101237.41;5012705;28;20380;-51
2022/01/27 11:51:10;;;;;;;28.52;12.43;;;;;;;4.04;90.49;101233.13;5012420;28;20029;-47
2022/01/27 11:53:42;;;;;;;21.73;10.40;;;;;;;4.14;90.42;101228.31;5009646;28;20040;-48
2022/01/27 11:56:29;;;;;;;23.23;11.25;;;;;;;4.11;90.22;101221.53;5009477;28;20144;-49
2022/01/27 11:59:00;;;;;;;21.73;10.48;;;;;;;4.16;90.12;101220.97;5002407;28;20541;-49
2022/01/27 12:01:26;;;;;;;21.98;10.70;;;;;;;4.16;89.95;101210.38;5009279;28;20101;-48
2022/01/27 12:04:05;;;;;;;21.00;10.13;;;;;;;4.20;89.63;101214.25;5008450;28;20148;-49
2022/01/27 12:06:34;;;;;;;24.92;12.15;;;;;;;4.23;89.52;101205.91;5007459;28;20054;-48
2022/01/27 12:09:21;;;;;;;23.27;10.93;;;;;;;4.20;89.69;101201.81;5008442;28;20100;-49
2022/01/27 12:11:50;;;;;;;22.23;9.85;;;;;;;4.33;89.24;101201.09;5009527;28;20073;-47
2022/01/27 12:14:21;;;;;;;21.52;10.18;;;;;;;4.33;89.19;101203.75;5009294;28;20116;-50